sensor_id;sensor_type;location;lat;lon;timestamp;temperature;humidity
12746;DHT22;6437;53.686;10.030;2023-03-01T00:02:57;2.90;99.90
12746;DHT22;6437;53.686;10.030;2023-03-01T00:05:59;2.90;99.90
12746;DHT22;6437;53.686;10.030;2023-03-01T00:09:01;2.90;99.90
12746;DHT22;6437;53.686;10.030;2023-03-01T00:12:05;2.90;99.90
12746;DHT22;6437;53.686;10.030;2023-03-01T00:15:08;2.90;99.90
12746;DHT22;6437;53.686;10.030;2023-03-01T00:18:10;2.90;99.90
12746;DHT22;6437;53.686;10.030;2023-03-01T00:21:12;2.90;99.90
12746;DHT22;6437;53.686;10.030;2023-03-01T00:24:14;3.00;99.90
12746;DHT22;6437;53.686;10.030;2023-03-01T00:27:17;3.00;99.90
12746;DHT22;6437;53.686;10.030;2023-03-01T00:30:19;3.00;99.90
12746;DHT22;6437;53.686;10.030;2023-03-01T00:33:21;3.00;99.90
12746;DHT22;6437;53.686;10.030;2023-03-01T00:36:24;3.00;99.90
12746;DHT22;6437;53.686;10.030;2023-03-01T00:39:26;3.00;99.90
12746;DHT22;6437;53.686;10.030;2023-03-01T00:42:29;3.00;99.90
12746;DHT22;6437;53.686;10.030;2023-03-01T00:45:32;3.00;99.90
12746;DHT22;6437;53.686;10.030;2023-03-01T00:48:35;2.90;99.90
12746;DHT22;6437;53.686;10.030;2023-03-01T00:51:37;2.90;99.90
12746;DHT22;6437;53.686;10.030;2023-03-01T00:54:39;2.90;99.90
12746;DHT22;6437;53.686;10.030;2023-03-01T00:57:43;2.90;99.90
12746;DHT22;6437;53.686;10.030;2023-03-01T01:00:44;2.80;99.90
12746;DHT22;6437;53.686;10.030;2023-03-01T01:03:48;2.80;99.90
12746;DHT22;6437;53.686;10.030;2023-03-01T01:06:49;2.80;99.90
12746;DHT22;6437;53.686;10.030;2023-03-01T01:09:51;2.70;99.90
12746;DHT22;6437;53.686;10.030;2023-03-01T01:12:54;2.70;99.90
12746;DHT22;6437;53.686;10.030;2023-03-01T01:16:00;2.70;99.90
12746;DHT22;6437;53.686;10.030;2023-03-01T01:19:02;2.70;99.90
12746;DHT22;6437;53.686;10.030;2023-03-01T01:22:04;2.60;99.90
12746;DHT22;6437;53.686;10.030;2023-03-01T01:25:06;2.60;99.90
12746;DHT22;6437;53.686;10.030;2023-03-01T01:28:10;2.70;99.90
12746;DHT22;6437;53.686;10.030;2023-03-01T01:31:12;2.60;99.90
12746;DHT22;6437;53.686;10.030;2023-03-01T01:34:15;2.60;99.90
12746;DHT22;6437;53.686;10.030;2023-03-01T01:37:17;2.60;99.90
12746;DHT22;6437;53.686;10.030;2023-03-01T01:40:19;2.50;99.90
12746;DHT22;6437;53.686;10.030;2023-03-01T01:43:24;2.60;99.90
12746;DHT22;6437;53.686;10.030;2023-03-01T01:46:29;2.50;99.90
12746;DHT22;6437;53.686;10.030;2023-03-01T01:49:35;2.50;99.90
12746;DHT22;6437;53.686;10.030;2023-03-01T01:52:38;2.60;99.90
12746;DHT22;6437;53.686;10.030;2023-03-01T01:55:42;2.60;99.90
12746;DHT22;6437;53.686;10.030;2023-03-01T01:58:46;2.50;99.90
12746;DHT22;6437;53.686;10.030;2023-03-01T02:01:49;2.50;99.90
12746;DHT22;6437;53.686;10.030;2023-03-01T02:04:55;2.50;99.90
12746;DHT22;6437;53.686;10.030;2023-03-01T02:08:04;2.50;99.90
12746;DHT22;6437;53.686;10.030;2023-03-01T02:11:06;2.40;99.90
12746;DHT22;6437;53.686;10.030;2023-03-01T02:14:10;2.40;99.90
12746;DHT22;6437;53.686;10.030;2023-03-01T02:17:13;2.40;99.90
12746;DHT22;6437;53.686;10.030;2023-03-01T02:20:21;2.40;99.90
12746;DHT22;6437;53.686;10.030;2023-03-01T02:23:24;2.40;99.90
12746;DHT22;6437;53.686;10.030;2023-03-01T02:26:33;2.30;99.90
12746;DHT22;6437;53.686;10.030;2023-03-01T02:29:38;2.30;99.90
12746;DHT22;6437;53.686;10.030;2023-03-01T02:32:41;2.20;99.90
12746;DHT22;6437;53.686;10.030;2023-03-01T02:35:43;2.20;99.90
12746;DHT22;6437;53.686;10.030;2023-03-01T02:38:46;2.20;99.90
12746;DHT22;6437;53.686;10.030;2023-03-01T02:41:50;2.10;99.90
12746;DHT22;6437;53.686;10.030;2023-03-01T02:44:54;2.10;99.90
12746;DHT22;6437;53.686;10.030;2023-03-01T02:47:57;2.10;99.90
12746;DHT22;6437;53.686;10.030;2023-03-01T02:51:05;2.10;99.90
12746;DHT22;6437;53.686;10.030;2023-03-01T02:54:19;2.10;99.90
12746;DHT22;6437;53.686;10.030;2023-03-01T02:57:25;2.00;99.90
12746;DHT22;6437;53.686;10.030;2023-03-01T03:00:34;1.90;99.90
12746;DHT22;6437;53.686;10.030;2023-03-01T03:03:40;2.00;99.90
12746;DHT22;6437;53.686;10.030;2023-03-01T03:06:41;1.90;99.90
12746;DHT22;6437;53.686;10.030;2023-03-01T03:09:43;1.90;99.90
12746;DHT22;6437;53.686;10.030;2023-03-01T03:12:49;2.70;99.90
12746;DHT22;6437;53.686;10.030;2023-03-01T03:15:52;1.80;99.90
12746;DHT22;6437;53.686;10.030;2023-03-01T03:18:54;1.90;99.90
12746;DHT22;6437;53.686;10.030;2023-03-01T03:22:05;1.80;99.90
12746;DHT22;6437;53.686;10.030;2023-03-01T03:25:09;1.90;99.90
12746;DHT22;6437;53.686;10.030;2023-03-01T03:28:12;1.90;99.90
12746;DHT22;6437;53.686;10.030;2023-03-01T03:31:15;2.00;99.90
12746;DHT22;6437;53.686;10.030;2023-03-01T03:34:17;2.10;99.90
12746;DHT22;6437;53.686;10.030;2023-03-01T03:37:18;2.10;99.90
12746;DHT22;6437;53.686;10.030;2023-03-01T03:40:36;2.20;99.90
12746;DHT22;6437;53.686;10.030;2023-03-01T03:43:40;2.20;99.90
12746;DHT22;6437;53.686;10.030;2023-03-01T03:46:44;2.20;99.90
12746;DHT22;6437;53.686;10.030;2023-03-01T03:49:46;2.20;99.90
12746;DHT22;6437;53.686;10.030;2023-03-01T03:52:47;2.20;99.90
12746;DHT22;6437;53.686;10.030;2023-03-01T03:55:49;2.20;99.90
12746;DHT22;6437;53.686;10.030;2023-03-01T03:58:52;2.20;99.90
12746;DHT22;6437;53.686;10.030;2023-03-01T04:01:55;2.20;99.90
12746;DHT22;6437;53.686;10.030;2023-03-01T04:04:57;2.20;99.90
12746;DHT22;6437;53.686;10.030;2023-03-01T04:07:58;2.20;99.90
12746;DHT22;6437;53.686;10.030;2023-03-01T04:11:05;2.20;99.90
12746;DHT22;6437;53.686;10.030;2023-03-01T04:14:20;2.10;99.90
12746;DHT22;6437;53.686;10.030;2023-03-01T04:17:24;2.10;99.90
12746;DHT22;6437;53.686;10.030;2023-03-01T04:20:28;2.10;99.90
12746;DHT22;6437;53.686;10.030;2023-03-01T04:23:30;2.10;99.90
12746;DHT22;6437;53.686;10.030;2023-03-01T04:26:31;2.10;99.90
12746;DHT22;6437;53.686;10.030;2023-03-01T04:29:33;2.10;99.90
12746;DHT22;6437;53.686;10.030;2023-03-01T04:32:36;2.20;99.90
12746;DHT22;6437;53.686;10.030;2023-03-01T04:35:38;2.20;99.90
12746;DHT22;6437;53.686;10.030;2023-03-01T04:38:41;2.20;99.90
12746;DHT22;6437;53.686;10.030;2023-03-01T04:41:43;2.20;99.90
12746;DHT22;6437;53.686;10.030;2023-03-01T04:44:45;2.50;99.90
12746;DHT22;6437;53.686;10.030;2023-03-01T04:47:48;2.30;99.90
12746;DHT22;6437;53.686;10.030;2023-03-01T04:50:52;2.30;99.90
12746;DHT22;6437;53.686;10.030;2023-03-01T04:53:54;2.40;99.90
12746;DHT22;6437;53.686;10.030;2023-03-01T04:56:56;2.40;99.90
12746;DHT22;6437;53.686;10.030;2023-03-01T04:59:58;2.40;99.90
12746;DHT22;6437;53.686;10.030;2023-03-01T05:03:01;2.40;99.90
12746;DHT22;6437;53.686;10.030;2023-03-01T05:06:04;2.80;99.90
12746;DHT22;6437;53.686;10.030;2023-03-01T05:09:05;2.50;99.90
12746;DHT22;6437;53.686;10.030;2023-03-01T05:12:07;2.40;99.90
12746;DHT22;6437;53.686;10.030;2023-03-01T05:15:10;2.50;99.90
12746;DHT22;6437;53.686;10.030;2023-03-01T05:18:13;2.50;99.90
12746;DHT22;6437;53.686;10.030;2023-03-01T05:21:15;2.50;99.90
12746;DHT22;6437;53.686;10.030;2023-03-01T05:24:17;2.50;99.90
12746;DHT22;6437;53.686;10.030;2023-03-01T05:27:19;2.50;99.90
12746;DHT22;6437;53.686;10.030;2023-03-01T05:30:22;2.50;99.90
12746;DHT22;6437;53.686;10.030;2023-03-01T05:33:26;2.50;99.90
12746;DHT22;6437;53.686;10.030;2023-03-01T05:36:28;2.50;99.90
12746;DHT22;6437;53.686;10.030;2023-03-01T05:39:30;2.50;99.90
12746;DHT22;6437;53.686;10.030;2023-03-01T05:42:32;2.50;99.90
12746;DHT22;6437;53.686;10.030;2023-03-01T05:45:36;3.00;99.90
12746;DHT22;6437;53.686;10.030;2023-03-01T05:48:39;2.60;99.90
12746;DHT22;6437;53.686;10.030;2023-03-01T05:51:41;2.60;99.90
12746;DHT22;6437;53.686;10.030;2023-03-01T05:54:44;2.60;99.90
12746;DHT22;6437;53.686;10.030;2023-03-01T05:57:46;2.60;99.90
12746;DHT22;6437;53.686;10.030;2023-03-01T06:00:49;2.60;99.90
12746;DHT22;6437;53.686;10.030;2023-03-01T06:03:52;2.70;99.90
12746;DHT22;6437;53.686;10.030;2023-03-01T06:06:54;2.70;99.90
12746;DHT22;6437;53.686;10.030;2023-03-01T06:09:55;2.70;99.90
12746;DHT22;6437;53.686;10.030;2023-03-01T06:12:57;2.70;99.90
12746;DHT22;6437;53.686;10.030;2023-03-01T06:15:59;2.70;99.90
12746;DHT22;6437;53.686;10.030;2023-03-01T06:19:03;2.80;99.90
12746;DHT22;6437;53.686;10.030;2023-03-01T06:22:05;2.80;99.90
12746;DHT22;6437;53.686;10.030;2023-03-01T06:25:08;2.80;99.90
12746;DHT22;6437;53.686;10.030;2023-03-01T06:28:09;2.80;99.90
12746;DHT22;6437;53.686;10.030;2023-03-01T06:31:12;2.80;99.90
12746;DHT22;6437;53.686;10.030;2023-03-01T06:34:15;2.80;99.90
12746;DHT22;6437;53.686;10.030;2023-03-01T06:37:17;2.80;99.90
12746;DHT22;6437;53.686;10.030;2023-03-01T06:40:19;2.80;99.90
12746;DHT22;6437;53.686;10.030;2023-03-01T06:43:21;2.80;99.90
12746;DHT22;6437;53.686;10.030;2023-03-01T06:46:23;2.80;99.90
12746;DHT22;6437;53.686;10.030;2023-03-01T06:49:27;2.80;99.90
12746;DHT22;6437;53.686;10.030;2023-03-01T06:52:28;2.90;99.90
12746;DHT22;6437;53.686;10.030;2023-03-01T06:55:31;2.90;99.90
12746;DHT22;6437;53.686;10.030;2023-03-01T06:58:33;2.90;99.90
12746;DHT22;6437;53.686;10.030;2023-03-01T07:01:35;2.90;99.90
12746;DHT22;6437;53.686;10.030;2023-03-01T07:04:38;3.00;99.90
12746;DHT22;6437;53.686;10.030;2023-03-01T07:07:39;3.00;99.90
12746;DHT22;6437;53.686;10.030;2023-03-01T07:10:41;3.10;99.90
12746;DHT22;6437;53.686;10.030;2023-03-01T07:13:43;3.10;99.90
12746;DHT22;6437;53.686;10.030;2023-03-01T07:16:44;3.20;99.90
12746;DHT22;6437;53.686;10.030;2023-03-01T07:19:48;3.20;99.90
12746;DHT22;6437;53.686;10.030;2023-03-01T07:22:49;3.20;99.90
12746;DHT22;6437;53.686;10.030;2023-03-01T07:25:52;3.20;99.90
12746;DHT22;6437;53.686;10.030;2023-03-01T07:28:54;3.20;99.90
12746;DHT22;6437;53.686;10.030;2023-03-01T07:31:56;3.30;99.90
12746;DHT22;6437;53.686;10.030;2023-03-01T07:35:00;3.30;99.90
12746;DHT22;6437;53.686;10.030;2023-03-01T07:38:01;3.20;99.90
12746;DHT22;6437;53.686;10.030;2023-03-01T07:41:03;3.40;99.90
12746;DHT22;6437;53.686;10.030;2023-03-01T07:44:06;3.40;99.90
12746;DHT22;6437;53.686;10.030;2023-03-01T07:47:08;3.40;99.90
12746;DHT22;6437;53.686;10.030;2023-03-01T07:50:11;3.40;99.90
12746;DHT22;6437;53.686;10.030;2023-03-01T07:53:14;3.40;99.90
12746;DHT22;6437;53.686;10.030;2023-03-01T07:56:16;3.70;99.90
12746;DHT22;6437;53.686;10.030;2023-03-01T07:59:19;3.40;99.90
12746;DHT22;6437;53.686;10.030;2023-03-01T08:02:20;3.50;99.90
12746;DHT22;6437;53.686;10.030;2023-03-01T08:05:23;3.80;99.90
12746;DHT22;6437;53.686;10.030;2023-03-01T08:08:25;3.60;99.90
12746;DHT22;6437;53.686;10.030;2023-03-01T08:11:27;3.60;99.90
12746;DHT22;6437;53.686;10.030;2023-03-01T08:14:29;3.70;99.90
12746;DHT22;6437;53.686;10.030;2023-03-01T08:17:31;3.70;99.90
12746;DHT22;6437;53.686;10.030;2023-03-01T08:20:34;3.60;99.90
12746;DHT22;6437;53.686;10.030;2023-03-01T08:23:36;3.70;99.90
12746;DHT22;6437;53.686;10.030;2023-03-01T08:26:37;3.70;99.90
12746;DHT22;6437;53.686;10.030;2023-03-01T08:29:39;4.50;99.90
12746;DHT22;6437;53.686;10.030;2023-03-01T08:32:41;3.80;99.90
12746;DHT22;6437;53.686;10.030;2023-03-01T08:35:44;3.80;99.90
12746;DHT22;6437;53.686;10.030;2023-03-01T08:38:46;3.80;99.90
12746;DHT22;6437;53.686;10.030;2023-03-01T08:41:47;3.70;99.90
12746;DHT22;6437;53.686;10.030;2023-03-01T08:44:49;3.80;99.90
12746;DHT22;6437;53.686;10.030;2023-03-01T08:47:52;3.80;99.90
12746;DHT22;6437;53.686;10.030;2023-03-01T08:50:55;3.90;99.90
12746;DHT22;6437;53.686;10.030;2023-03-01T08:53:57;4.00;99.90
12746;DHT22;6437;53.686;10.030;2023-03-01T08:57:01;4.00;99.90
12746;DHT22;6437;53.686;10.030;2023-03-01T09:00:04;4.10;99.90
12746;DHT22;6437;53.686;10.030;2023-03-01T09:03:08;4.10;99.90
12746;DHT22;6437;53.686;10.030;2023-03-01T09:06:12;4.10;99.90
12746;DHT22;6437;53.686;10.030;2023-03-01T09:09:16;4.20;99.90
12746;DHT22;6437;53.686;10.030;2023-03-01T09:12:18;5.00;99.90
12746;DHT22;6437;53.686;10.030;2023-03-01T09:15:20;4.30;99.90
12746;DHT22;6437;53.686;10.030;2023-03-01T09:18:21;4.40;99.90
12746;DHT22;6437;53.686;10.030;2023-03-01T09:21:24;4.50;99.90
12746;DHT22;6437;53.686;10.030;2023-03-01T09:24:26;4.60;99.90
12746;DHT22;6437;53.686;10.030;2023-03-01T09:27:28;4.70;99.90
12746;DHT22;6437;53.686;10.030;2023-03-01T09:30:30;4.80;99.90
12746;DHT22;6437;53.686;10.030;2023-03-01T09:33:32;4.80;99.90
12746;DHT22;6437;53.686;10.030;2023-03-01T09:36:36;4.90;99.90
12746;DHT22;6437;53.686;10.030;2023-03-01T09:39:38;5.00;99.90
12746;DHT22;6437;53.686;10.030;2023-03-01T09:42:46;5.00;99.90
12746;DHT22;6437;53.686;10.030;2023-03-01T09:45:50;5.10;99.90
12746;DHT22;6437;53.686;10.030;2023-03-01T09:48:56;5.20;99.90
12746;DHT22;6437;53.686;10.030;2023-03-01T09:52:16;5.20;99.90
12746;DHT22;6437;53.686;10.030;2023-03-01T09:55:26;5.30;99.90
12746;DHT22;6437;53.686;10.030;2023-03-01T09:58:41;5.30;99.90
12746;DHT22;6437;53.686;10.030;2023-03-01T10:01:51;5.40;99.90
12746;DHT22;6437;53.686;10.030;2023-03-01T10:05:05;5.40;99.90
12746;DHT22;6437;53.686;10.030;2023-03-01T10:08:34;5.40;99.90
12746;DHT22;6437;53.686;10.030;2023-03-01T10:11:43;5.10;99.90
12746;DHT22;6437;53.686;10.030;2023-03-01T10:14:52;5.50;99.90
12746;DHT22;6437;53.686;10.030;2023-03-01T10:17:57;5.60;99.90
12746;DHT22;6437;53.686;10.030;2023-03-01T10:21:13;5.60;99.90
12746;DHT22;6437;53.686;10.030;2023-03-01T10:24:18;5.70;99.90
12746;DHT22;6437;53.686;10.030;2023-03-01T10:27:23;5.80;99.90
12746;DHT22;6437;53.686;10.030;2023-03-01T10:30:34;5.80;99.90
12746;DHT22;6437;53.686;10.030;2023-03-01T10:33:38;5.90;99.90
12746;DHT22;6437;53.686;10.030;2023-03-01T10:36:41;6.00;99.90
12746;DHT22;6437;53.686;10.030;2023-03-01T10:40:01;6.00;99.90
12746;DHT22;6437;53.686;10.030;2023-03-01T10:43:06;6.00;99.90
12746;DHT22;6437;53.686;10.030;2023-03-01T10:46:22;6.00;99.90
12746;DHT22;6437;53.686;10.030;2023-03-01T10:49:24;6.10;99.90
12746;DHT22;6437;53.686;10.030;2023-03-01T10:52:30;6.10;99.90
12746;DHT22;6437;53.686;10.030;2023-03-01T10:55:35;6.20;99.90
12746;DHT22;6437;53.686;10.030;2023-03-01T10:58:39;6.30;99.90
12746;DHT22;6437;53.686;10.030;2023-03-01T11:01:40;6.30;99.90
12746;DHT22;6437;53.686;10.030;2023-03-01T11:04:57;6.40;99.90
12746;DHT22;6437;53.686;10.030;2023-03-01T11:08:01;6.50;99.90
12746;DHT22;6437;53.686;10.030;2023-03-01T11:11:15;6.60;99.90
12746;DHT22;6437;53.686;10.030;2023-03-01T11:14:20;6.70;99.90
12746;DHT22;6437;53.686;10.030;2023-03-01T11:17:25;6.90;99.90
12746;DHT22;6437;53.686;10.030;2023-03-01T11:20:31;7.00;99.90
12746;DHT22;6437;53.686;10.030;2023-03-01T11:23:39;6.90;99.90
12746;DHT22;6437;53.686;10.030;2023-03-01T11:26:47;7.30;99.90
12746;DHT22;6437;53.686;10.030;2023-03-01T11:29:55;7.50;99.90
12746;DHT22;6437;53.686;10.030;2023-03-01T11:33:06;7.60;99.90
12746;DHT22;6437;53.686;10.030;2023-03-01T11:36:22;7.70;99.90
12746;DHT22;6437;53.686;10.030;2023-03-01T11:39:31;7.90;99.90
12746;DHT22;6437;53.686;10.030;2023-03-01T11:42:46;8.00;99.90
12746;DHT22;6437;53.686;10.030;2023-03-01T11:49:40;8.30;99.90
12746;DHT22;6437;53.686;10.030;2023-03-01T11:52:52;8.40;99.90
12746;DHT22;6437;53.686;10.030;2023-03-01T11:56:04;8.50;99.90
12746;DHT22;6437;53.686;10.030;2023-03-01T11:59:29;8.60;99.90
12746;DHT22;6437;53.686;10.030;2023-03-01T12:09:38;8.90;99.90
12746;DHT22;6437;53.686;10.030;2023-03-01T12:12:51;9.00;99.90
12746;DHT22;6437;53.686;10.030;2023-03-01T12:16:09;9.20;99.90
12746;DHT22;6437;53.686;10.030;2023-03-01T12:19:32;9.40;99.90
12746;DHT22;6437;53.686;10.030;2023-03-01T12:22:44;9.60;99.90
12746;DHT22;6437;53.686;10.030;2023-03-01T12:25:53;9.80;99.90
12746;DHT22;6437;53.686;10.030;2023-03-01T12:29:17;10.00;99.90
12746;DHT22;6437;53.686;10.030;2023-03-01T12:32:40;10.40;99.90
12746;DHT22;6437;53.686;10.030;2023-03-01T12:36:23;10.60;99.90
12746;DHT22;6437;53.686;10.030;2023-03-01T12:39:39;10.90;99.90
12746;DHT22;6437;53.686;10.030;2023-03-01T12:42:50;11.20;99.90
12746;DHT22;6437;53.686;10.030;2023-03-01T12:46:14;11.60;99.90
12746;DHT22;6437;53.686;10.030;2023-03-01T12:49:25;11.90;99.90
12746;DHT22;6437;53.686;10.030;2023-03-01T12:52:35;12.20;99.90
12746;DHT22;6437;53.686;10.030;2023-03-01T12:55:39;12.50;99.90
12746;DHT22;6437;53.686;10.030;2023-03-01T12:58:50;12.70;99.90
12746;DHT22;6437;53.686;10.030;2023-03-01T13:01:59;13.00;99.90
12746;DHT22;6437;53.686;10.030;2023-03-01T13:05:28;13.10;99.90
12746;DHT22;6437;53.686;10.030;2023-03-01T13:08:35;13.40;99.90
12746;DHT22;6437;53.686;10.030;2023-03-01T13:11:41;13.60;99.90
12746;DHT22;6437;53.686;10.030;2023-03-01T13:14:46;13.70;99.90
12746;DHT22;6437;53.686;10.030;2023-03-01T13:17:49;13.90;99.90
12746;DHT22;6437;53.686;10.030;2023-03-01T13:20:53;14.00;99.90
12746;DHT22;6437;53.686;10.030;2023-03-01T13:23:57;14.10;99.90
12746;DHT22;6437;53.686;10.030;2023-03-01T13:27:22;14.10;99.90
12746;DHT22;6437;53.686;10.030;2023-03-01T13:30:40;14.20;99.90
12746;DHT22;6437;53.686;10.030;2023-03-01T13:33:44;14.20;99.90
12746;DHT22;6437;53.686;10.030;2023-03-01T13:36:48;14.10;99.90
12746;DHT22;6437;53.686;10.030;2023-03-01T13:39:50;14.10;99.90
12746;DHT22;6437;53.686;10.030;2023-03-01T13:42:53;14.10;99.90
12746;DHT22;6437;53.686;10.030;2023-03-01T13:45:55;14.10;99.90
12746;DHT22;6437;53.686;10.030;2023-03-01T13:48:57;14.00;99.90
12746;DHT22;6437;53.686;10.030;2023-03-01T13:52:02;14.10;99.90
12746;DHT22;6437;53.686;10.030;2023-03-01T13:55:06;14.00;99.90
12746;DHT22;6437;53.686;10.030;2023-03-01T13:58:23;14.00;99.90
12746;DHT22;6437;53.686;10.030;2023-03-01T14:01:28;14.00;99.90
12746;DHT22;6437;53.686;10.030;2023-03-01T14:04:32;14.00;99.90
12746;DHT22;6437;53.686;10.030;2023-03-01T14:07:37;13.90;99.90
12746;DHT22;6437;53.686;10.030;2023-03-01T14:10:47;13.90;99.90
12746;DHT22;6437;53.686;10.030;2023-03-01T14:14:08;13.90;99.90
12746;DHT22;6437;53.686;10.030;2023-03-01T14:17:40;13.70;99.90
12746;DHT22;6437;53.686;10.030;2023-03-01T14:20:44;13.50;99.90
12746;DHT22;6437;53.686;10.030;2023-03-01T14:23:53;13.30;99.90
12746;DHT22;6437;53.686;10.030;2023-03-01T14:26:54;13.20;99.90
12746;DHT22;6437;53.686;10.030;2023-03-01T14:29:58;13.10;99.90
12746;DHT22;6437;53.686;10.030;2023-03-01T14:33:03;12.90;99.90
12746;DHT22;6437;53.686;10.030;2023-03-01T14:36:07;12.80;99.90
12746;DHT22;6437;53.686;10.030;2023-03-01T14:39:18;12.70;99.90
12746;DHT22;6437;53.686;10.030;2023-03-01T14:42:23;12.70;99.90
12746;DHT22;6437;53.686;10.030;2023-03-01T14:45:27;12.70;99.90
12746;DHT22;6437;53.686;10.030;2023-03-01T14:48:30;12.60;99.90
12746;DHT22;6437;53.686;10.030;2023-03-01T14:51:39;12.80;99.90
12746;DHT22;6437;53.686;10.030;2023-03-01T14:54:44;13.00;99.90
12746;DHT22;6437;53.686;10.030;2023-03-01T14:57:49;13.20;99.90
12746;DHT22;6437;53.686;10.030;2023-03-01T15:00:53;13.40;99.90
12746;DHT22;6437;53.686;10.030;2023-03-01T15:03:55;13.60;99.90
12746;DHT22;6437;53.686;10.030;2023-03-01T15:06:57;13.70;99.90
12746;DHT22;6437;53.686;10.030;2023-03-01T15:10:16;13.90;99.60
12746;DHT22;6437;53.686;10.030;2023-03-01T15:13:23;14.00;99.40
12746;DHT22;6437;53.686;10.030;2023-03-01T15:16:27;14.00;99.50
12746;DHT22;6437;53.686;10.030;2023-03-01T15:19:29;13.90;99.70
12746;DHT22;6437;53.686;10.030;2023-03-01T15:22:31;14.00;99.90
12746;DHT22;6437;53.686;10.030;2023-03-01T15:25:34;14.10;99.60
12746;DHT22;6437;53.686;10.030;2023-03-01T15:28:48;14.30;99.40
12746;DHT22;6437;53.686;10.030;2023-03-01T15:31:58;14.10;99.40
12746;DHT22;6437;53.686;10.030;2023-03-01T15:35:31;13.80;99.60
12746;DHT22;6437;53.686;10.030;2023-03-01T15:38:29;13.80;99.80
12746;DHT22;6437;53.686;10.030;2023-03-01T15:41:46;13.40;99.90
12746;DHT22;6437;53.686;10.030;2023-03-01T15:44:49;12.90;99.90
12746;DHT22;6437;53.686;10.030;2023-03-01T15:47:52;12.70;99.90
12746;DHT22;6437;53.686;10.030;2023-03-01T15:50:55;12.50;99.90
12746;DHT22;6437;53.686;10.030;2023-03-01T15:54:00;12.30;99.90
12746;DHT22;6437;53.686;10.030;2023-03-01T15:57:04;12.00;99.90
12746;DHT22;6437;53.686;10.030;2023-03-01T16:00:09;11.70;99.90
12746;DHT22;6437;53.686;10.030;2023-03-01T16:03:11;11.50;99.90
12746;DHT22;6437;53.686;10.030;2023-03-01T16:06:13;11.30;99.90
12746;DHT22;6437;53.686;10.030;2023-03-01T16:09:15;11.10;99.90
12746;DHT22;6437;53.686;10.030;2023-03-01T16:12:18;10.90;99.90
12746;DHT22;6437;53.686;10.030;2023-03-01T16:15:27;10.80;99.90
12746;DHT22;6437;53.686;10.030;2023-03-01T16:18:29;10.60;99.90
12746;DHT22;6437;53.686;10.030;2023-03-01T16:21:30;10.40;99.90
12746;DHT22;6437;53.686;10.030;2023-03-01T16:24:32;10.30;99.90
12746;DHT22;6437;53.686;10.030;2023-03-01T16:27:37;10.20;99.90
12746;DHT22;6437;53.686;10.030;2023-03-01T16:30:39;10.00;99.90
12746;DHT22;6437;53.686;10.030;2023-03-01T16:33:41;9.90;99.90
12746;DHT22;6437;53.686;10.030;2023-03-01T16:36:45;9.70;99.90
12746;DHT22;6437;53.686;10.030;2023-03-01T16:39:47;9.70;99.90
12746;DHT22;6437;53.686;10.030;2023-03-01T16:42:52;9.50;99.90
12746;DHT22;6437;53.686;10.030;2023-03-01T16:45:54;9.40;99.90
12746;DHT22;6437;53.686;10.030;2023-03-01T16:48:56;9.30;99.90
12746;DHT22;6437;53.686;10.030;2023-03-01T16:51:58;9.20;99.90
12746;DHT22;6437;53.686;10.030;2023-03-01T16:55:01;9.10;99.90
12746;DHT22;6437;53.686;10.030;2023-03-01T16:58:05;9.00;99.90
12746;DHT22;6437;53.686;10.030;2023-03-01T17:01:08;8.90;99.90
12746;DHT22;6437;53.686;10.030;2023-03-01T17:04:12;8.80;99.90
12746;DHT22;6437;53.686;10.030;2023-03-01T17:07:14;8.70;99.90
12746;DHT22;6437;53.686;10.030;2023-03-01T17:10:16;8.60;99.90
12746;DHT22;6437;53.686;10.030;2023-03-01T17:13:19;8.50;99.90
12746;DHT22;6437;53.686;10.030;2023-03-01T17:16:20;8.30;99.90
12746;DHT22;6437;53.686;10.030;2023-03-01T17:19:23;8.20;99.90
12746;DHT22;6437;53.686;10.030;2023-03-01T17:22:24;8.10;99.90
12746;DHT22;6437;53.686;10.030;2023-03-01T17:25:26;8.00;99.90
12746;DHT22;6437;53.686;10.030;2023-03-01T17:28:31;7.90;99.90
12746;DHT22;6437;53.686;10.030;2023-03-01T17:31:33;7.70;99.90
12746;DHT22;6437;53.686;10.030;2023-03-01T17:34:35;7.60;99.90
12746;DHT22;6437;53.686;10.030;2023-03-01T17:37:37;7.50;99.90
12746;DHT22;6437;53.686;10.030;2023-03-01T17:40:40;7.30;99.90
12746;DHT22;6437;53.686;10.030;2023-03-01T17:43:43;7.10;99.90
12746;DHT22;6437;53.686;10.030;2023-03-01T17:46:45;7.00;99.90
12746;DHT22;6437;53.686;10.030;2023-03-01T17:49:47;6.90;99.90
12746;DHT22;6437;53.686;10.030;2023-03-01T17:52:49;6.70;99.90
12746;DHT22;6437;53.686;10.030;2023-03-01T17:55:59;6.60;99.90
12746;DHT22;6437;53.686;10.030;2023-03-01T17:59:03;6.60;99.90
12746;DHT22;6437;53.686;10.030;2023-03-01T18:02:04;6.40;99.90
12746;DHT22;6437;53.686;10.030;2023-03-01T18:05:07;6.30;99.90
12746;DHT22;6437;53.686;10.030;2023-03-01T18:08:09;6.10;99.90
12746;DHT22;6437;53.686;10.030;2023-03-01T18:11:11;6.10;99.90
12746;DHT22;6437;53.686;10.030;2023-03-01T18:14:14;5.90;99.90
12746;DHT22;6437;53.686;10.030;2023-03-01T18:17:16;5.80;99.90
12746;DHT22;6437;53.686;10.030;2023-03-01T18:20:18;5.70;99.90
12746;DHT22;6437;53.686;10.030;2023-03-01T18:23:20;5.60;99.90
12746;DHT22;6437;53.686;10.030;2023-03-01T18:26:22;5.50;99.90
12746;DHT22;6437;53.686;10.030;2023-03-01T18:29:25;5.40;99.90
12746;DHT22;6437;53.686;10.030;2023-03-01T18:32:27;5.40;99.90
12746;DHT22;6437;53.686;10.030;2023-03-01T18:35:29;5.40;99.90
12746;DHT22;6437;53.686;10.030;2023-03-01T18:38:31;5.40;99.90
12746;DHT22;6437;53.686;10.030;2023-03-01T18:41:34;5.30;99.90
12746;DHT22;6437;53.686;10.030;2023-03-01T18:44:38;5.30;99.90
12746;DHT22;6437;53.686;10.030;2023-03-01T18:47:39;5.30;99.90
12746;DHT22;6437;53.686;10.030;2023-03-01T18:50:41;5.20;99.90
12746;DHT22;6437;53.686;10.030;2023-03-01T18:53:43;5.60;99.90
12746;DHT22;6437;53.686;10.030;2023-03-01T18:56:45;5.10;99.90
12746;DHT22;6437;53.686;10.030;2023-03-01T18:59:49;5.10;99.90
12746;DHT22;6437;53.686;10.030;2023-03-01T19:02:50;5.10;99.90
12746;DHT22;6437;53.686;10.030;2023-03-01T19:05:52;5.10;99.90
12746;DHT22;6437;53.686;10.030;2023-03-01T19:08:54;5.10;99.90
12746;DHT22;6437;53.686;10.030;2023-03-01T19:11:56;5.10;99.90
12746;DHT22;6437;53.686;10.030;2023-03-01T19:15:04;5.10;99.90
12746;DHT22;6437;53.686;10.030;2023-03-01T19:18:06;5.10;99.90
12746;DHT22;6437;53.686;10.030;2023-03-01T19:21:10;5.10;99.90
12746;DHT22;6437;53.686;10.030;2023-03-01T19:24:12;5.10;99.90
12746;DHT22;6437;53.686;10.030;2023-03-01T19:27:14;5.10;99.90
12746;DHT22;6437;53.686;10.030;2023-03-01T19:30:17;5.10;99.90
12746;DHT22;6437;53.686;10.030;2023-03-01T19:33:19;5.10;99.90
12746;DHT22;6437;53.686;10.030;2023-03-01T19:36:21;5.10;99.90
12746;DHT22;6437;53.686;10.030;2023-03-01T19:39:28;5.10;99.90
12746;DHT22;6437;53.686;10.030;2023-03-01T19:42:30;5.10;99.90
12746;DHT22;6437;53.686;10.030;2023-03-01T19:45:33;5.10;99.90
12746;DHT22;6437;53.686;10.030;2023-03-01T19:48:34;5.00;99.90
12746;DHT22;6437;53.686;10.030;2023-03-01T19:51:36;5.00;99.90
12746;DHT22;6437;53.686;10.030;2023-03-01T19:54:38;5.00;99.90